Latest Weather Observations for Coonawarra

IDS60801

Issued at 6:04 pm CST Saturday 18 April 2015 (issued every 30 minutes, with the page automatically refreshed every 10 minutes)

About weather observations | Map of weather stations | Latest weather observations for SA | Other Formats
Station Details ID: 026091 Name: COONAWARRA Lat: -37.29 Lon: 140.83 Height: 57.0 m
Data from the previous 72 hours. | See also: Recent months at Coonawarra
Date/Time
CST
Temp
°C
App
Temp
°C
Dew
Point
Rel
Hum
%
Delta-T
°C
Wind Press
QNH
hPa
Press
MSL
hPa
Rain
since 9 am
mm
Dir
 
Spd
km/h
Gust
km/h
Spd
kts
Gust
kts
18/06:00pm 11.4 9.8 10.2 92 0.6 WSW 9 11 5 6 1017.3 1017.3 2.6
18/05:30pm 11.8 9.9 10.4 91 0.7 WSW 11 15 6 8 1016.7 1016.7 2.6
18/05:00pm 12.0 10.2 10.7 92 0.7 WSW 11 15 6 8 1016.2 1016.2 2.6
18/04:30pm 12.0 10.2 10.7 92 0.7 SW 11 20 6 11 1015.6 1015.6 2.2
18/04:00pm 12.1 8.9 10.0 87 1.1 SW 17 24 9 13 1015.4 1015.4 2.2
18/03:30pm 11.9 7.3 9.5 85 1.2 SW 24 35 13 19 1015.0 1015.0 2.0
18/03:16pm 12.3 7.3 11.0 92 0.7 SW 28 46 15 25 1014.8 1014.8 2.0
18/03:00pm 12.6 9.0 11.9 95 0.4 SSW 22 33 12 18 1014.5 1014.5 1.8
18/02:30pm 13.1 9.2 12.2 94 0.5 SW 24 35 13 19 1014.1 1014.1 1.6
18/02:00pm 13.3 8.7 12.4 94 0.5 SSW 28 39 15 21 1013.4 1013.4 1.2
18/01:30pm 17.8 13.0 11.8 68 3.3 WNW 28 44 15 24 1012.6 1012.6 0.0
18/01:10pm 18.8 13.5 11.1 61 4.2 WNW 30 48 16 26 1012.3 1012.3 0.0
18/01:00pm 20.1 16.0 11.6 58 4.7 NW 24 35 13 19 1012.2 1012.2 0.0
18/12:30pm 18.1 13.4 12.1 68 3.3 NW 28 41 15 22 1012.8 1012.8 0.0
18/12:14pm 18.6 13.8 11.5 63 3.9 NW 28 46 15 25 1013.0 1013.0 0.0
18/12:00pm 17.9 14.9 12.5 70 3.0 NW 20 32 11 17 1013.3 1013.3 0.0
18/11:30am 17.4 13.4 11.9 70 3.0 NW 24 39 13 21 1013.8 1013.8 0.0
18/11:00am 16.6 11.4 11.6 72 2.7 NW 30 43 16 23 1014.1 1014.1 0.0
18/10:30am 16.4 11.8 11.2 71 2.8 NW 26 39 14 21 1014.3 1014.3 0.0
18/10:00am 17.2 11.7 10.5 64 3.6 NW 30 41 16 22 1014.4 1014.4 0.0
18/09:30am 16.1 11.8 10.9 71 2.8 NNW 24 33 13 18 1014.6 1014.6 0.0
18/09:00am 14.2 10.0 11.0 81 1.7 NNW 24 32 13 17 1014.6 1014.6 0.0
18/08:30am 12.5 9.0 10.8 89 0.9 NNW 20 30 11 16 1014.8 1014.8 0.0
18/08:00am 10.4 7.7 10.2 99 0.1 N 15 24 8 13 1014.7 1014.7 0.0
18/07:30am 9.2 6.5 9.0 99 0.1 N 13 20 7 11 1014.8 1014.8 0.0
18/07:00am 9.2 6.1 9.0 99 0.1 NNW 15 19 8 10 1014.6 1014.6 0.0
18/06:30am 9.3 6.6 9.1 99 0.1 N 13 20 7 11 1014.4 1014.4 0.0
18/06:00am 9.4 6.4 9.2 99 0.1 N 15 22 8 12 1014.3 1014.3 0.0
18/05:30am 9.8 7.3 9.6 99 0.1 N 13 20 7 11 1014.1 1014.1 0.0
18/05:00am 9.9 7.3 9.5 97 0.2 NNW 13 17 7 9 1013.9 1013.9 0.0
18/04:30am 10.3 7.8 9.7 96 0.3 N 13 15 7 8 1013.7 1013.7 0.0
18/04:00am 10.6 8.6 10.0 96 0.3 NNW 11 13 6 7 1013.8 1013.8 0.0
18/03:30am 10.1 8.3 9.5 96 0.3 N 9 13 5 7 1013.8 1013.8 0.0
18/03:00am 10.2 8.0 9.4 95 0.4 NNW 11 13 6 7 1013.9 1013.9 0.0
18/02:30am 10.3 8.5 9.3 93 0.5 NNW 9 13 5 7 1014.2 1014.2 0.0
18/02:00am 10.8 9.0 9.4 91 0.7 NNW 9 11 5 6 1014.4 1014.4 0.0
18/01:30am 11.8 10.1 9.8 87 1.0 NNW 9 11 5 6 1014.5 1014.5 0.0
18/01:00am 12.2 10.8 9.6 84 1.3 NNW 7 11 4 6 1014.9 1014.9 0.0
18/12:30am 12.3 11.0 9.8 85 1.3 WNW 7 9 4 5 1015.1 1015.1 0.0
18/12:00am 12.3 11.1 10.2 87 1.1 WNW 7 13 4 7 1015.2 1015.2 0.0
 
Date/Time
CST
Temp
°C
App
Temp
°C
Dew
Point
Rel
Hum
%
Delta-T
°C
Wind Press
QNH
hPa
Press
MSL
hPa
Rain
since 9 am
mm
Dir
 
Spd
km/h
Gust
km/h
Spd
kts
Gust
kts
17/11:30pm 12.3 10.8 10.6 89 0.9 WNW 9 13 5 7 1015.4 1015.4 0.0
17/11:00pm 12.0 10.9 10.5 90 0.8 NNW 7 9 4 5 1015.7 1015.7 0.0
17/10:30pm 11.6 10.3 9.8 89 0.9 NNW 7 9 4 5 1016.1 1016.1 0.0
17/10:00pm 12.7 11.5 10.2 85 1.3 NNE 7 9 4 5 1016.0 1016.0 0.0
17/09:30pm 12.8 11.8 10.3 85 1.3 N 6 7 3 4 1016.4 1016.4 0.0
17/09:00pm 12.7 12.5 10.4 86 1.2 NW 2 7 1 4 1016.6 1016.6 0.0
17/08:30pm 12.9 11.0 10.4 85 1.3 WNW 11 15 6 8 1016.6 1016.6 0.0
17/08:00pm 13.3 12.1 10.4 82 1.5 WNW 7 9 4 5 1016.4 1016.4 0.0
17/07:30pm 13.5 12.6 10.6 82 1.5 NNE 6 9 3 5 1016.5 1016.5 0.0
17/07:00pm 13.7 11.7 10.0 78 1.9 NNE 11 15 6 8 1016.5 1016.5 0.0
17/06:30pm 14.0 11.5 9.7 75 2.2 NNE 13 19 7 10 1016.6 1016.6 0.0
17/06:00pm 13.9 12.2 10.0 77 2.0 NNE 9 13 5 7 1016.5 1016.5 0.0
17/05:30pm 14.2 12.5 10.0 76 2.2 NNE 9 15 5 8 1016.2 1016.2 0.0
17/05:00pm 14.5 12.0 9.7 73 2.5 NNE 13 19 7 10 1016.2 1016.2 0.0
17/04:30pm 16.4 13.6 6.9 53 4.7 NNE 11 15 6 8 1016.3 1016.3 0.0
17/04:00pm 16.5 14.1 6.8 52 4.8 NNE 9 11 5 6 1016.4 1016.4 0.0
17/03:30pm 16.7 13.9 6.8 52 4.9 NE 11 15 6 8 1016.5 1016.5 0.0
17/03:00pm 16.5 14.1 6.8 52 4.8 NNE 9 13 5 7 1017.0 1017.0 0.0
17/02:30pm 16.4 13.5 6.6 52 4.8 NNE 11 15 6 8 1017.0 1017.0 0.0
17/02:00pm 16.6 13.6 6.1 50 5.1 NNE 11 15 6 8 1017.2 1017.2 0.0
17/01:30pm 16.1 12.3 6.0 51 4.9 NE 15 22 8 12 1018.0 1018.0 0.0
17/01:00pm 15.7 12.1 6.7 55 4.4 NNE 15 20 8 11 1018.7 1018.7 0.0
17/12:30pm 15.3 12.4 6.7 56 4.2 NNE 11 15 6 8 1019.3 1019.3 0.0
17/12:00pm 15.5 12.6 6.4 54 4.4 NNE 11 17 6 9 1020.0 1020.0 0.0
17/11:30am 15.2 12.6 6.3 55 4.3 NNE 9 13 5 7 1020.5 1020.5 0.0
17/11:00am 14.3 11.9 7.1 62 3.5 NE 9 13 5 7 1021.0 1021.0 0.0
17/10:30am 13.3 11.3 6.9 65 3.1 E 7 11 4 6 1021.6 1021.6 0.0
17/10:00am 12.6 11.1 7.0 68 2.7 SE 4 7 2 4 1022.2 1022.2 0.0
17/09:30am 12.3 9.4 6.6 68 2.7 E 11 17 6 9 1022.0 1022.0 0.0
17/09:00am 11.4 8.1 6.5 72 2.3 ESE 13 17 7 9 1022.3 1022.3 0.0
17/08:30am 10.7 7.8 6.7 76 1.9 ESE 11 17 6 9 1023.0 1023.0 0.0
17/08:00am 9.8 7.4 6.8 81 1.4 SE 9 13 5 7 1022.9 1022.9 0.0
17/07:30am 8.7 6.6 6.8 88 0.9 SE 7 11 4 6 1023.2 1023.2 0.0
17/07:00am 8.2 6.1 6.5 89 0.8 SSE 7 9 4 5 1023.3 1023.3 0.0
17/06:30am 8.4 6.3 6.7 89 0.8 SE 7 9 4 5 1023.3 1023.3 0.0
17/06:00am 8.2 6.7 6.7 90 0.7 SSE 4 6 2 3 1023.4 1023.4 0.0
17/05:30am 8.6 6.7 6.7 88 0.9 SE 6 7 3 4 1023.3 1023.3 0.0
17/05:00am 8.8 6.7 6.6 86 1.0 SE 7 11 4 6 1023.2 1023.2 0.0
17/04:30am 8.5 6.6 6.8 89 0.8 SSE 6 9 3 5 1023.3 1023.3 0.0
17/04:00am 8.7 6.2 6.5 86 1.0 SSE 9 13 5 7 1023.1 1023.1 0.0
17/03:30am 8.9 6.4 6.7 86 1.0 SSE 9 11 5 6 1023.0 1023.0 0.0
17/03:00am 9.2 6.8 6.8 85 1.1 SSE 9 13 5 7 1023.2 1023.2 0.0
17/02:30am 9.1 6.2 6.7 85 1.1 S 11 15 6 8 1023.9 1023.8 0.0
17/02:00am 9.1 6.6 6.7 85 1.1 S 9 13 5 7 1023.9 1023.8 0.0
17/01:30am 9.2 7.1 6.6 84 1.2 SSE 7 11 4 6 1023.7 1023.6 0.0
17/01:00am 9.5 7.1 6.9 84 1.2 NE 9 11 5 6 1023.8 1023.7 0.0
17/12:30am 10.0 7.9 6.8 80 1.5 ESE 7 9 4 5 1024.3 1024.2 0.0
17/12:00am 10.3 8.3 6.9 79 1.6 SE 7 9 4 5 1024.9 1024.8 0.0
 
Date/Time
CST
Temp
°C
App
Temp
°C
Dew
Point
Rel
Hum
%
Delta-T
°C
Wind Press
QNH
hPa
Press
MSL
hPa
Rain
since 9 am
mm
Dir
 
Spd
km/h
Gust
km/h
Spd
kts
Gust
kts
16/11:30pm 10.7 8.9 7.1 78 1.7 SE 6 9 3 5 1025.5 1025.4 0.0
16/11:00pm 11.2 9.1 6.8 74 2.1 SE 7 9 4 5 1026.1 1026.0 0.0
16/10:30pm 11.3 9.3 7.1 75 2.0 SE 7 11 4 6 1026.1 1026.0 0.0
16/10:00pm 11.7 9.7 6.9 72 2.3 SE 7 11 4 6 1026.5 1026.4 0.0
16/09:30pm 12.0 9.5 6.7 70 2.5 SSE 9 13 5 7 1026.6 1026.6 0.0
16/09:00pm 12.3 9.9 6.9 69 2.6 SE 9 13 5 7 1026.5 1026.4 0.0
16/08:30pm 12.4 9.6 7.0 69 2.6 SE 11 13 6 7 1026.1 1026.0 0.0
16/08:00pm 12.6 9.7 6.7 67 2.8 SSE 11 17 6 9 1026.0 1025.9 0.0
16/07:30pm 12.9 10.1 6.9 67 2.9 SSE 11 15 6 8 1026.0 1025.9 0.0
16/07:00pm 13.3 10.5 7.1 66 3.0 SSE 11 15 6 8 1026.1 1026.0 0.0
16/06:30pm 13.7 10.9 7.1 64 3.2 SSE 11 15 6 8 1025.8 1025.7 0.0
16/06:00pm 14.1 11.0 7.1 62 3.4 SSE 13 19 7 10 1025.6 1025.5 0.0
16/05:30pm 14.7 11.5 6.9 59 3.8 S 13 19 7 10 1025.4 1025.3 0.0
16/05:00pm 15.6 12.8 6.8 56 4.3 S 11 15 6 8 1025.2 1025.1 0.0
16/04:30pm 16.1 13.1 6.2 52 4.8 S 11 15 6 8 1025.5 1025.4 0.0
16/04:00pm 16.4 13.4 6.1 50 5.0 SSW 11 19 6 10 1025.8 1025.7 0.0
16/03:30pm 16.6 12.5 6.3 50 5.0 SSW 17 22 9 12 1025.6 1025.5 0.0
16/03:00pm 17.2 13.9 6.4 49 5.3 S 13 20 7 11 1025.4 1025.3 0.0
16/02:30pm 16.9 13.5 6.0 48 5.3 SSW 13 20 7 11 1025.2 1025.1 0.0
16/02:00pm 17.1 13.7 5.7 47 5.5 SSW 13 20 7 11 1025.0 1024.9 0.0
16/01:30pm 16.8 13.3 5.6 47 5.4 S 13 19 7 10 1025.4 1025.3 0.0
16/01:00pm 16.9 14.6 5.7 47 5.4 S 7 13 4 7 1025.6 1025.5 0.0
16/12:30pm 16.3 13.3 5.9 50 5.0 S 11 17 6 9 1026.1 1026.0 0.0
16/12:00pm 15.9 12.6 6.2 52 4.7 SSE 13 19 7 10 1026.3 1026.2 0.0
16/11:30am 15.7 12.8 6.4 54 4.5 S 11 15 6 8 1026.9 1026.9 0.0
16/11:00am 15.6 12.7 6.5 54 4.4 SSE 11 17 6 9 1027.4 1027.4 0.0
16/10:30am 15.6 13.2 6.8 56 4.3 SSE 9 19 5 10 1027.5 1027.5 0.0
16/10:00am 15.4 12.1 6.3 54 4.4 SSE 13 19 7 10 1027.4 1027.4 0.0
16/09:30am 14.9 11.6 6.4 57 4.1 SSE 13 20 7 11 1027.3 1027.3 0.0
16/09:00am 14.4 11.5 6.5 59 3.8 S 11 17 6 9 1027.7 1027.7 0.2
16/08:30am 14.3 12.0 7.3 63 3.4 S 9 15 5 8 1027.7 1027.7 0.2
16/08:00am 13.5 10.7 8.5 72 2.5 S 13 17 7 9 1026.7 1026.7 0.2
16/07:30am 13.1 11.1 10.0 81 1.6 S 11 15 6 8 1026.2 1026.1 0.2
16/07:00am 13.0 11.3 11.3 89 0.9 S 11 15 6 8 1025.7 1025.6 0.2
16/06:30am 12.8 11.6 11.7 93 0.6 SSW 9 15 5 8 1025.5 1025.4 0.2
16/06:00am 12.6 11.8 11.8 95 0.4 SSW 7 9 4 5 1025.5 1025.4 0.2
16/05:30am 12.4 11.6 11.8 96 0.3 S 7 9 4 5 1024.8 1024.7 0.2
16/05:00am 12.2 12.7 11.6 96 0.3 CALM 0 6 0 3 1024.8 1024.7 0.2
16/04:30am 12.4 11.3 11.8 96 0.3 SW 9 9 5 5 1024.6 1024.5 0.2
16/04:00am 12.1 11.4 11.5 96 0.3 SW 6 9 3 5 1024.3 1024.2 0.2
16/03:30am 11.7 10.4 11.1 96 0.3 WSW 9 9 5 5 1023.9 1023.8 0.2
16/03:00am 12.9 12.3 12.3 96 0.3 SSW 7 7 4 4 1023.9 1023.8 0.2
16/02:30am 13.0 12.6 12.4 96 0.3 S 6 7 3 4 1023.8 1023.7 0.2
16/02:00am 12.9 12.3 12.3 96 0.3 S 7 11 4 6 1023.6 1023.5 0.2
16/01:30am 12.6 12.0 12.2 97 0.2 SW 7 11 4 6 1023.9 1023.8 0.2
16/01:00am 11.7 10.4 11.1 96 0.3 W 9 11 5 6 1024.0 1023.9 0.2
16/12:30am 8.8 7.1 8.2 96 0.3 W 7 9 4 5 1023.8 1023.7 0.2
16/12:00am 8.8 7.1 8.4 97 0.2 WSW 7 7 4 4 1023.6 1023.5 0.2
 
Date/Time
CST
Temp
°C
App
Temp
°C
Dew
Point
Rel
Hum
%
Delta-T
°C
Wind Press
QNH
hPa
Press
MSL
hPa
Rain
since 9 am
mm
Dir
 
Spd
km/h
Gust
km/h
Spd
kts
Gust
kts
15/11:30pm 9.4 7.8 8.6 95 0.4 SW 7 7 4 4 1023.3 1023.3 0.2
15/11:00pm 10.5 9.0 9.1 91 0.7 SW 7 9 4 5 1023.7 1023.6 0.2
15/10:30pm 11.6 10.3 10.0 90 0.8 WSW 7 9 4 5 1023.9 1023.8 0.2
15/10:00pm 12.8 11.6 11.7 93 0.6 WSW 9 9 5 5 1023.8 1023.7 0.2
15/09:30pm 14.1 12.8 12.4 89 0.9 WSW 11 13 6 7 1023.7 1023.6 0.2
15/09:00pm 15.3 14.3 12.2 82 1.7 WSW 9 11 5 6 1023.3 1023.3 0.2
15/08:30pm 16.1 14.4 12.3 78 2.1 WSW 13 19 7 10 1023.0 1023.0 0.2
15/08:00pm 15.4 14.7 13.1 86 1.3 W 9 11 5 6 1022.7 1022.7 0.2
15/07:30pm 15.3 14.1 12.9 85 1.3 WSW 11 13 6 7 1022.4 1022.4 0.2
15/07:00pm 15.2 13.6 12.8 85 1.3 WSW 13 17 7 9 1022.0 1022.0 0.2
15/06:30pm 16.2 14.3 13.0 81 1.8 WSW 15 20 8 11 1021.4 1021.4 0.2

Other Formats:

Comma delimited format used in spreadsheet applications
http://www.bom.gov.au/fwo/IDS60801/IDS60801.94817.axf

JavaScript Object Notation format (JSON) in row-major order
http://www.bom.gov.au/fwo/IDS60801/IDS60801.94817.json